Time;durP1;ratioP1;P1;durP2;ratioP2;P2;SDS_P1;SDS_P2;PMS_P1;PMS_P2;Temp;Humidity;BMP_temperature;BMP_pressure;BME280_temperature;BME280_humidity;BME280_pressure;Samples;Min_cycle;Max_cycle;Signal;HPM_P1;HPM_P2
2023/06/21 00:00:30;;;;;;;;;;;19.50;99.90;;;;;;5016927;28;19931;-74
2023/06/21 00:02:58;;;;;;;;;;;19.50;99.90;;;;;;5016889;28;19905;-73
2023/06/21 00:05:24;;;;;;;;;;;19.50;99.90;;;;;;5016813;28;19909;-74
2023/06/21 00:07:52;;;;;;;;;;;19.50;99.90;;;;;;5016785;28;20307;-73
2023/06/21 00:10:20;;;;;;;;;;;19.40;99.90;;;;;;5016735;28;19906;-74
2023/06/21 00:12:46;;;;;;;;;;;19.40;99.90;;;;;;5016798;28;19909;-73
2023/06/21 00:15:12;;;;;;;;;;;19.40;99.90;;;;;;5016845;28;19959;-73
2023/06/21 00:17:37;;;;;;;;;;;19.30;99.90;;;;;;5016653;28;20349;-74
2023/06/21 00:20:03;;;;;;;;;;;19.30;99.90;;;;;;5016660;28;19971;-73
2023/06/21 00:22:29;;;;;;;;;;;19.30;99.90;;;;;;5016556;28;20365;-74
2023/06/21 00:24:57;;;;;;;;;;;19.20;99.90;;;;;;5015216;28;20472;-73
2023/06/21 00:27:22;;;;;;;;;;;19.30;99.90;;;;;;5016401;28;19905;-73
2023/06/21 00:29:47;;;;;;;;;;;19.30;99.90;;;;;;5016561;28;19963;-73
2023/06/21 00:32:13;;;;;;;;;;;19.30;99.90;;;;;;5016314;28;20368;-73
2023/06/21 00:34:38;;;;;;;;;;;19.20;99.90;;;;;;5013867;28;19928;-74
2023/06/21 00:37:04;;;;;;;;;;;19.20;99.90;;;;;;5015056;28;20004;-74
2023/06/21 00:39:30;;;;;;;;;;;19.20;99.90;;;;;;5016549;28;19912;-73
2023/06/21 00:41:55;;;;;;;;;;;19.20;99.90;;;;;;5016244;28;19936;-74
2023/06/21 00:44:21;;;;;;;;;;;19.30;99.90;;;;;;5014848;28;20008;-74
2023/06/21 00:46:48;;;;;;;;;;;19.30;99.90;;;;;;5014845;28;19906;-74
2023/06/21 00:49:14;;;;;;;;;;;19.20;99.90;;;;;;5016019;28;19913;-73
2023/06/21 00:51:41;;;;;;;;;;;19.20;99.90;;;;;;5016598;28;20290;-73
2023/06/21 00:54:07;;;;;;;;;;;19.20;99.90;;;;;;5016639;28;19906;-73
2023/06/21 00:56:35;;;;;;;;;;;19.10;99.90;;;;;;5015885;28;19983;-74
2023/06/21 00:59:04;;;;;;;;;;;19.10;99.90;;;;;;5015834;28;19916;-73
2023/06/21 01:01:30;;;;;;;;;;;19.20;99.90;;;;;;5015799;28;19905;-74
2023/06/21 01:03:57;;;;;;;;;;;19.10;99.90;;;;;;5015774;28;19905;-74
2023/06/21 01:06:37;;;;;;;;;;;19.10;99.90;;;;;;5014341;28;19959;-74
2023/06/21 01:09:17;;;;;;;;;;;19.00;99.90;;;;;;5016242;28;19929;-74
2023/06/21 01:12:05;;;;;;;;;;;19.00;99.90;;;;;;5014393;28;19906;-74
2023/06/21 01:14:38;;;;;;;;;;;19.00;99.90;;;;;;4978779;28;20316;-73
2023/06/21 01:17:04;;;;;;;;;;;18.90;99.90;;;;;;5015579;28;19955;-73
2023/06/21 01:19:40;;;;;;;;;;;18.90;99.90;;;;;;5015445;28;19956;-74
2023/06/21 01:22:34;;;;;;;;;;;18.90;99.90;;;;;;5016008;28;19909;-74
2023/06/21 01:25:16;;;;;;;;;;;18.90;99.90;;;;;;4945245;28;19947;-74
2023/06/21 01:27:48;;;;;;;;;;;18.90;99.90;;;;;;5015327;28;20386;-73
2023/06/21 01:30:14;;;;;;;;;;;19.00;99.90;;;;;;5015351;28;20415;-73
2023/06/21 01:32:40;;;;;;;;;;;18.90;99.90;;;;;;5015262;28;20368;-74
2023/06/21 01:35:07;;;;;;;;;;;18.90;99.90;;;;;;5015268;28;19964;-74
2023/06/21 01:37:33;;;;;;;;;;;19.00;99.90;;;;;;5015196;28;19960;-73
2023/06/21 01:39:59;;;;;;;;;;;19.10;99.90;;;;;;5014146;28;20361;-73
2023/06/21 01:42:24;;;;;;;;;;;19.10;99.90;;;;;;5015019;28;19905;-73
2023/06/21 01:44:50;;;;;;;;;;;19.10;99.90;;;;;;5014645;28;19952;-74
2023/06/21 01:47:16;;;;;;;;;;;19.10;99.90;;;;;;5013715;28;19905;-73
2023/06/21 01:49:42;;;;;;;;;;;19.00;99.90;;;;;;5014945;28;19910;-73
2023/06/21 01:52:07;;;;;;;;;;;19.00;99.90;;;;;;5015539;28;20004;-73
2023/06/21 01:54:34;;;;;;;;;;;19.00;99.90;;;;;;5014884;28;20404;-74
2023/06/21 01:57:00;;;;;;;;;;;18.90;99.90;;;;;;5014817;28;19912;-74
2023/06/21 01:59:27;;;;;;;;;;;19.00;99.90;;;;;;5014994;28;19909;-74
2023/06/21 02:01:53;;;;;;;;;;;19.00;99.90;;;;;;5013476;28;19996;-73
2023/06/21 02:04:20;;;;;;;;;;;19.00;99.90;;;;;;5014556;28;19905;-73
2023/06/21 02:06:48;;;;;;;;;;;18.90;99.90;;;;;;5014529;28;20008;-73
2023/06/21 02:09:13;;;;;;;;;;;18.90;99.90;;;;;;5014775;28;19906;-74
2023/06/21 02:11:39;;;;;;;;;;;18.90;99.90;;;;;;5014533;28;19941;-73
2023/06/21 02:14:05;;;;;;;;;;;18.90;99.90;;;;;;5014454;28;19905;-73
2023/06/21 02:16:31;;;;;;;;;;;18.90;99.90;;;;;;5014478;28;19905;-73
2023/06/21 02:18:56;;;;;;;;;;;18.90;99.90;;;;;;5014426;28;19955;-74
2023/06/21 02:21:22;;;;;;;;;;;18.90;99.90;;;;;;5013153;28;19905;-74
2023/06/21 02:23:48;;;;;;;;;;;18.90;99.90;;;;;;5013077;28;19906;-74
2023/06/21 02:26:14;;;;;;;;;;;18.90;99.90;;;;;;5014237;28;20016;-74
2023/06/21 02:28:41;;;;;;;;;;;18.90;99.90;;;;;;5014288;28;19910;-74
2023/06/21 02:31:06;;;;;;;;;;;18.90;99.90;;;;;;5012567;28;19999;-74
2023/06/21 02:33:32;;;;;;;;;;;18.90;99.90;;;;;;5014189;28;19956;-74
2023/06/21 02:35:57;;;;;;;;;;;19.00;99.90;;;;;;5014105;28;19913;-74
2023/06/21 02:38:25;;;;;;;;;;;19.00;99.90;;;;;;5012844;28;19951;-74
2023/06/21 02:40:51;;;;;;;;;;;19.00;99.90;;;;;;5014024;28;19905;-74
2023/06/21 02:43:16;;;;;;;;;;;19.00;99.90;;;;;;5014018;28;20360;-74
2023/06/21 02:45:41;;;;;;;;;;;19.00;99.90;;;;;;5012689;28;19956;-74
2023/06/21 02:48:07;;;;;;;;;;;19.00;99.90;;;;;;5014048;28;20368;-73
2023/06/21 02:50:32;;;;;;;;;;;19.00;99.90;;;;;;5014475;28;19912;-73
2023/06/21 02:52:58;;;;;;;;;;;19.00;99.90;;;;;;5014567;28;19912;-73
2023/06/21 02:55:23;;;;;;;;;;;19.00;99.90;;;;;;5012654;28;20000;-73
2023/06/21 02:57:49;;;;;;;;;;;18.90;99.90;;;;;;5013204;28;20309;-73
2023/06/21 03:00:19;;;;;;;;;;;18.90;99.90;;;;;;5013197;28;19959;-73
2023/06/21 03:02:45;;;;;;;;;;;18.90;99.90;;;;;;5012597;28;20292;-74
2023/06/21 03:05:13;;;;;;;;;;;18.90;99.90;;;;;;5013676;28;19909;-73
2023/06/21 03:07:43;;;;;;;;;;;18.90;99.90;;;;;;5013744;28;20351;-74
2023/06/21 03:10:15;;;;;;;;;;;18.90;99.90;;;;;;5013888;28;20253;-73
2023/06/21 03:12:41;;;;;;;;;;;18.80;99.90;;;;;;5014371;28;19909;-73
2023/06/21 03:15:07;;;;;;;;;;;18.80;99.90;;;;;;5013683;28;19905;-74
2023/06/21 03:17:32;;;;;;;;;;;18.80;99.90;;;;;;5013910;28;20000;-73
2023/06/21 03:19:58;;;;;;;;;;;18.70;99.90;;;;;;5013799;28;20055;-74
2023/06/21 03:22:23;;;;;;;;;;;18.70;99.90;;;;;;5012396;28;19905;-74
2023/06/21 03:24:49;;;;;;;;;;;18.60;99.90;;;;;;5013521;28;19963;-74
2023/06/21 03:27:14;;;;;;;;;;;18.50;99.90;;;;;;5012275;28;19912;-74
2023/06/21 03:29:40;;;;;;;;;;;18.50;99.90;;;;;;5013387;28;19913;-73
2023/06/21 03:32:05;;;;;;;;;;;18.40;99.90;;;;;;5013594;28;19913;-73
2023/06/21 03:34:31;;;;;;;;;;;18.40;99.90;;;;;;5013528;28;19909;-73
2023/06/21 03:36:56;;;;;;;;;;;18.80;99.90;;;;;;5013547;28;19905;-73
2023/06/21 03:39:21;;;;;;;;;;;18.40;99.90;;;;;;5013368;28;19911;-73
2023/06/21 03:41:47;;;;;;;;;;;18.40;99.90;;;;;;5013451;28;19909;-74
2023/06/21 03:44:12;;;;;;;;;;;18.40;99.90;;;;;;5013512;28;19912;-73
2023/06/21 03:46:38;;;;;;;;;;;18.40;99.90;;;;;;5012070;28;20324;-74
2023/06/21 03:49:04;;;;;;;;;;;18.40;99.90;;;;;;5013254;28;19905;-73
2023/06/21 03:51:30;;;;;;;;;;;18.40;99.90;;;;;;5013439;28;19956;-73
2023/06/21 03:53:55;;;;;;;;;;;18.40;99.90;;;;;;5013360;28;20365;-74
2023/06/21 03:56:20;;;;;;;;;;;18.40;99.90;;;;;;5013362;28;19909;-73
2023/06/21 03:58:47;;;;;;;;;;;18.40;99.90;;;;;;5011901;28;20377;-73
2023/06/21 04:01:12;;;;;;;;;;;18.40;99.90;;;;;;5013278;28;19912;-73
2023/06/21 04:03:37;;;;;;;;;;;18.40;99.90;;;;;;5013229;28;19905;-73
2023/06/21 04:06:03;;;;;;;;;;;18.40;99.90;;;;;;5013124;28;19910;-74
2023/06/21 04:08:28;;;;;;;;;;;18.50;99.90;;;;;;5015359;28;19905;-74
2023/06/21 04:10:55;;;;;;;;;;;18.50;99.90;;;;;;5016788;28;19975;-73
2023/06/21 04:13:21;;;;;;;;;;;19.10;99.90;;;;;;5016779;28;20381;-74
2023/06/21 04:15:46;;;;;;;;;;;18.50;99.90;;;;;;5016741;28;19913;-73
2023/06/21 04:18:12;;;;;;;;;;;18.50;99.90;;;;;;5015435;28;20007;-73
2023/06/21 04:20:37;;;;;;;;;;;18.50;99.90;;;;;;5015243;28;20000;-73
2023/06/21 04:23:03;;;;;;;;;;;18.60;99.90;;;;;;5016560;28;19968;-74
2023/06/21 04:25:28;;;;;;;;;;;18.60;99.90;;;;;;5015192;28;20349;-74
2023/06/21 04:27:54;;;;;;;;;;;18.80;99.90;;;;;;5016411;28;19905;-74
2023/06/21 04:30:19;;;;;;;;;;;18.80;99.90;;;;;;5016433;28;19924;-74
2023/06/21 04:32:45;;;;;;;;;;;18.90;99.90;;;;;;5016353;28;19905;-73
2023/06/21 04:35:14;;;;;;;;;;;18.90;99.90;;;;;;5016368;28;19909;-74
2023/06/21 04:37:45;;;;;;;;;;;19.00;99.90;;;;;;5016371;28;19906;-74
2023/06/21 04:40:21;;;;;;;;;;;19.10;99.90;;;;;;5016473;28;19906;-74
2023/06/21 04:42:47;;;;;;;;;;;19.10;99.90;;;;;;5016260;28;19994;-73
2023/06/21 04:45:16;;;;;;;;;;;19.20;99.90;;;;;;5016920;28;20063;-73
2023/06/21 04:47:42;;;;;;;;;;;19.20;99.90;;;;;;5016102;28;19905;-74
2023/06/21 04:50:09;;;;;;;;;;;19.20;99.90;;;;;;5014751;28;19912;-74
2023/06/21 04:52:37;;;;;;;;;;;19.30;99.90;;;;;;5014850;28;20424;-74
2023/06/21 04:55:06;;;;;;;;;;;19.20;99.90;;;;;;5014776;28;19905;-74
2023/06/21 04:57:31;;;;;;;;;;;19.40;99.90;;;;;;5015857;28;19913;-74
2023/06/21 04:59:57;;;;;;;;;;;19.40;99.90;;;;;;5014611;28;19905;-73
2023/06/21 05:02:24;;;;;;;;;;;19.50;99.90;;;;;;5015854;28;19912;-73
2023/06/21 05:04:49;;;;;;;;;;;19.50;99.90;;;;;;5015736;28;20356;-73
2023/06/21 05:07:15;;;;;;;;;;;19.60;99.90;;;;;;5015808;28;19940;-73
2023/06/21 05:09:41;;;;;;;;;;;19.90;99.90;;;;;;5015651;28;19912;-73
2023/06/21 05:12:08;;;;;;;;;;;19.90;99.90;;;;;;5016247;28;20376;-74
2023/06/21 05:14:34;;;;;;;;;;;20.10;99.90;;;;;;5015591;28;19984;-74
2023/06/21 05:16:59;;;;;;;;;;;20.20;99.90;;;;;;5015521;28;19951;-73
2023/06/21 05:19:24;;;;;;;;;;;20.40;99.90;;;;;;5015247;28;19912;-73
2023/06/21 05:21:50;;;;;;;;;;;20.60;99.90;;;;;;5015870;28;19905;-73
2023/06/21 05:24:15;;;;;;;;;;;20.70;99.90;;;;;;5016561;28;19905;-78
2023/06/21 05:26:44;;;;;;;;;;;20.70;99.90;;;;;;5016652;28;19992;-76
2023/06/21 05:29:12;;;;;;;;;;;20.70;99.90;;;;;;5015369;28;20361;-77
2023/06/21 05:31:40;;;;;;;;;;;20.70;99.90;;;;;;5014229;28;20285;-77
2023/06/21 05:34:06;;;;;;;;;;;20.70;99.90;;;;;;5015506;28;20056;-77
2023/06/21 05:36:31;;;;;;;;;;;20.80;99.90;;;;;;5014487;28;19956;-78
2023/06/21 05:38:57;;;;;;;;;;;20.80;99.90;;;;;;5015508;28;19913;-77
2023/06/21 05:41:22;;;;;;;;;;;20.90;99.90;;;;;;5013870;28;19909;-77
2023/06/21 05:43:48;;;;;;;;;;;21.00;99.90;;;;;;5015260;28;19906;-77
2023/06/21 05:46:13;;;;;;;;;;;21.00;99.90;;;;;;5014978;28;20353;-77
2023/06/21 05:48:39;;;;;;;;;;;21.20;99.90;;;;;;5015319;28;19905;-77
2023/06/21 05:51:04;;;;;;;;;;;21.30;99.90;;;;;;5013777;28;19913;-77
2023/06/21 05:53:29;;;;;;;;;;;21.50;99.90;;;;;;5014057;28;19905;-77
2023/06/21 05:55:56;;;;;;;;;;;21.70;99.90;;;;;;5015199;28;20004;-76
2023/06/21 05:58:22;;;;;;;;;;;21.70;99.90;;;;;;5015425;28;19905;-76
2023/06/21 06:00:48;;;;;;;;;;;21.60;99.90;;;;;;5015204;28;19912;-76
2023/06/21 06:03:13;;;;;;;;;;;21.70;99.90;;;;;;5014007;28;19905;-77
2023/06/21 06:05:38;;;;;;;;;;;21.70;99.90;;;;;;5013825;28;20369;-76
2023/06/21 06:08:04;;;;;;;;;;;21.60;99.90;;;;;;5013760;28;20385;-76
2023/06/21 06:10:30;;;;;;;;;;;21.70;99.90;;;;;;5014114;28;19910;-76
2023/06/21 06:12:55;;;;;;;;;;;21.70;99.90;;;;;;5013748;28;19952;-76
2023/06/21 06:15:21;;;;;;;;;;;21.60;99.90;;;;;;5014864;28;20375;-76
2023/06/21 06:17:49;;;;;;;;;;;21.60;99.90;;;;;;5013918;28;19950;-76
2023/06/21 06:20:14;;;;;;;;;;;21.60;99.90;;;;;;5014073;28;19929;-76
2023/06/21 06:22:40;;;;;;;;;;;21.50;99.90;;;;;;5013698;28;20389;-76
2023/06/21 06:25:06;;;;;;;;;;;21.50;99.90;;;;;;5014941;28;19999;-76
2023/06/21 06:27:32;;;;;;;;;;;21.50;99.90;;;;;;5014773;28;19955;-76
2023/06/21 06:29:57;;;;;;;;;;;21.60;99.90;;;;;;5014846;28;19913;-76
2023/06/21 06:32:23;;;;;;;;;;;21.70;99.90;;;;;;5014158;28;19912;-76
2023/06/21 06:34:49;;;;;;;;;;;21.60;99.90;;;;;;5013839;28;20040;-77
2023/06/21 06:37:14;;;;;;;;;;;21.60;99.90;;;;;;5015607;28;19906;-76
2023/06/21 06:39:40;;;;;;;;;;;21.60;99.90;;;;;;5013574;28;19913;-77
2023/06/21 06:42:06;;;;;;;;;;;21.60;99.90;;;;;;5016169;28;19996;-77
2023/06/21 06:44:31;;;;;;;;;;;21.70;99.90;;;;;;5015568;28;19913;-76
2023/06/21 06:46:57;;;;;;;;;;;21.80;99.90;;;;;;5015611;28;19905;-76
2023/06/21 06:49:22;;;;;;;;;;;21.90;99.90;;;;;;5014396;28;19929;-77
2023/06/21 06:51:48;;;;;;;;;;;21.90;99.90;;;;;;5017331;28;19905;-78
2023/06/21 06:54:13;;;;;;;;;;;22.00;99.90;;;;;;5017581;28;19975;-78
2023/06/21 06:56:39;;;;;;;;;;;22.10;99.90;;;;;;5017478;28;19905;-76
2023/06/21 06:59:04;;;;;;;;;;;22.00;99.90;;;;;;5017347;28;19975;-77
2023/06/21 07:01:30;;;;;;;;;;;22.10;99.90;;;;;;5017641;28;19905;-77
2023/06/21 07:03:56;;;;;;;;;;;22.10;99.90;;;;;;5016226;28;19955;-77
2023/06/21 07:06:21;;;;;;;;;;;22.10;99.90;;;;;;5014368;28;19971;-77
2023/06/21 07:08:47;;;;;;;;;;;22.10;99.90;;;;;;5014902;28;19905;-77
2023/06/21 07:11:12;;;;;;;;;;;22.10;99.90;;;;;;5013926;28;19968;-76
2023/06/21 07:13:38;;;;;;;;;;;22.10;99.90;;;;;;5012563;28;19976;-76
2023/06/21 07:16:04;;;;;;;;;;;22.20;99.90;;;;;;5013811;28;19905;-76
2023/06/21 07:18:29;;;;;;;;;;;22.20;99.90;;;;;;5013834;28;20385;-76
2023/06/21 07:20:55;;;;;;;;;;;22.30;99.90;;;;;;5012519;28;19905;-76
2023/06/21 07:23:20;;;;;;;;;;;22.30;99.90;;;;;;5013708;28;20292;-76
2023/06/21 07:25:46;;;;;;;;;;;22.30;99.90;;;;;;5012425;28;20316;-76
2023/06/21 07:28:11;;;;;;;;;;;22.40;99.90;;;;;;5013647;28;19932;-76
2023/06/21 07:30:37;;;;;;;;;;;22.40;99.90;;;;;;5013512;28;19913;-76
2023/06/21 07:33:03;;;;;;;;;;;22.50;99.90;;;;;;5012703;28;20265;-76
2023/06/21 07:35:29;;;;;;;;;;;22.60;99.90;;;;;;5012314;28;19905;-76
2023/06/21 07:37:54;;;;;;;;;;;22.70;99.90;;;;;;5012399;28;19905;-76
2023/06/21 07:40:20;;;;;;;;;;;22.90;99.90;;;;;;5013633;28;20300;-76
2023/06/21 07:42:46;;;;;;;;;;;22.90;99.90;;;;;;5014621;28;19906;-76
2023/06/21 07:45:11;;;;;;;;;;;23.00;99.90;;;;;;5016134;28;19913;-76
2023/06/21 07:47:37;;;;;;;;;;;23.10;99.90;;;;;;5017474;28;19905;-76
2023/06/21 07:50:03;;;;;;;;;;;23.30;99.90;;;;;;5016297;28;19905;-77
2023/06/21 07:52:29;;;;;;;;;;;23.50;99.90;;;;;;5017192;28;19905;-76
2023/06/21 07:54:54;;;;;;;;;;;23.60;99.90;;;;;;5017900;28;19956;-76
2023/06/21 07:57:20;;;;;;;;;;;23.80;99.90;;;;;;5017462;28;19906;-76
2023/06/21 07:59:45;;;;;;;;;;;23.80;99.90;;;;;;5017898;28;20430;-76
2023/06/21 08:02:17;;;;;;;;;;;23.60;99.90;;;;;;5017889;28;19916;-76
2023/06/21 08:04:43;;;;;;;;;;;23.60;99.90;;;;;;5016903;28;19906;-77
2023/06/21 08:07:08;;;;;;;;;;;23.50;99.90;;;;;;5018128;28;19928;-77
2023/06/21 08:09:34;;;;;;;;;;;23.60;99.90;;;;;;5018150;28;20364;-77
2023/06/21 08:12:00;;;;;;;;;;;23.80;99.90;;;;;;5018095;28;20361;-77
2023/06/21 08:14:26;;;;;;;;;;;23.90;99.90;;;;;;5017929;28;20044;-76
2023/06/21 08:16:51;;;;;;;;;;;23.90;99.90;;;;;;5016249;28;19909;-76
2023/06/21 08:19:17;;;;;;;;;;;24.00;99.90;;;;;;5017477;28;19912;-77
2023/06/21 08:21:42;;;;;;;;;;;24.00;99.90;;;;;;5017809;28;19912;-76
2023/06/21 08:24:08;;;;;;;;;;;23.90;99.90;;;;;;5016617;28;19905;-76
2023/06/21 08:26:34;;;;;;;;;;;23.90;99.90;;;;;;5016488;28;19963;-76
2023/06/21 08:28:59;;;;;;;;;;;23.80;99.90;;;;;;5017590;28;19905;-76
2023/06/21 08:31:24;;;;;;;;;;;23.80;99.90;;;;;;5016350;28;19916;-77
2023/06/21 08:33:50;;;;;;;;;;;23.70;99.90;;;;;;5017197;28;20016;-76
2023/06/21 08:36:15;;;;;;;;;;;23.70;99.90;;;;;;5016460;28;19905;-76
2023/06/21 08:38:41;;;;;;;;;;;23.90;99.90;;;;;;5016490;28;19909;-76
2023/06/21 08:41:07;;;;;;;;;;;24.10;99.90;;;;;;5016307;28;20365;-76
2023/06/21 08:43:32;;;;;;;;;;;24.40;99.90;;;;;;5016569;28;19906;-76
2023/06/21 08:46:03;;;;;;;;;;;24.50;99.90;;;;;;5016269;28;19909;-76
2023/06/21 08:48:29;;;;;;;;;;;24.50;99.90;;;;;;5015034;28;19913;-76
2023/06/21 08:50:55;;;;;;;;;;;24.60;99.90;;;;;;5016071;28;20340;-76
2023/06/21 08:53:36;;;;;;;;;;;24.70;99.90;;;;;;5016061;28;19910;-76
2023/06/21 08:56:03;;;;;;;;;;;24.60;99.90;;;;;;5015393;28;19916;-76
2023/06/21 08:58:32;;;;;;;;;;;24.60;99.90;;;;;;5015027;28;19932;-76
2023/06/21 09:00:59;;;;;;;;;;;24.70;99.90;;;;;;5016448;28;19952;-76
2023/06/21 09:03:28;;;;;;;;;;;24.60;99.90;;;;;;5015901;28;19968;-76
2023/06/21 09:06:07;;;;;;;;;;;24.60;99.90;;;;;;5015060;28;19916;-76
2023/06/21 09:08:33;;;;;;;;;;;24.60;99.90;;;;;;5016445;28;19910;-77
2023/06/21 09:10:59;;;;;;;;;;;24.50;99.90;;;;;;5016577;28;19906;-76
2023/06/21 09:13:25;;;;;;;;;;;24.50;99.90;;;;;;5016758;28;19906;-76
2023/06/21 09:15:51;;;;;;;;;;;24.50;99.90;;;;;;5016267;28;19905;-76
2023/06/21 09:18:17;;;;;;;;;;;24.50;99.90;;;;;;5016145;28;19905;-76
2023/06/21 09:20:45;;;;;;;;;;;24.40;99.90;;;;;;5015621;28;19955;-77
2023/06/21 09:23:11;;;;;;;;;;;24.50;99.90;;;;;;5015670;28;19909;-76
2023/06/21 09:25:37;;;;;;;;;;;24.70;99.90;;;;;;5015471;28;19917;-76
2023/06/21 09:28:02;;;;;;;;;;;24.80;99.90;;;;;;5015560;28;20369;-76
2023/06/21 09:30:28;;;;;;;;;;;24.90;99.90;;;;;;5015580;28;19921;-77
2023/06/21 09:32:53;;;;;;;;;;;25.00;99.90;;;;;;5015721;28;19999;-77
2023/06/21 09:35:19;;;;;;;;;;;25.00;99.90;;;;;;5015523;28;20412;-77
2023/06/21 09:37:45;;;;;;;;;;;25.00;99.90;;;;;;5016252;28;19905;-77
2023/06/21 09:40:11;;;;;;;;;;;25.00;99.90;;;;;;5013900;28;20289;-77
2023/06/21 09:42:40;;;;;;;;;;;25.30;99.90;;;;;;5015346;28;19956;-77
2023/06/21 09:45:09;;;;;;;;;;;25.30;99.90;;;;;;5015295;28;19910;-77
2023/06/21 09:47:34;;;;;;;;;;;25.40;99.90;;;;;;5015639;28;19912;-77
2023/06/21 09:50:04;;;;;;;;;;;25.40;99.90;;;;;;5015180;28;20000;-77
2023/06/21 09:52:30;;;;;;;;;;;25.30;99.90;;;;;;5015128;28;19905;-77
2023/06/21 09:54:57;;;;;;;;;;;25.20;99.90;;;;;;5015206;28;19928;-77
2023/06/21 09:57:29;;;;;;;;;;;25.30;99.90;;;;;;5013767;28;20272;-77
2023/06/21 09:59:55;;;;;;;;;;;25.60;99.90;;;;;;5015806;28;20349;-77
2023/06/21 10:02:21;;;;;;;;;;;25.60;99.90;;;;;;5014609;28;20422;-77
2023/06/21 10:04:46;;;;;;;;;;;25.70;99.90;;;;;;5014766;28;19905;-76
2023/06/21 10:07:14;;;;;;;;;;;25.80;99.90;;;;;;5014912;28;20353;-73
2023/06/21 10:09:40;;;;;;;;;;;25.60;99.90;;;;;;5015192;28;19996;-73
2023/06/21 10:14:58;;;;;;;;;;;25.60;99.90;;;;;;5012323;28;20312;-75
2023/06/21 10:17:23;;;;;;;;;;;25.80;99.90;;;;;;5014590;28;19912;-74
2023/06/21 10:19:49;;;;;;;;;;;25.90;99.90;;;;;;5013164;28;19905;-74
2023/06/21 10:22:17;;;;;;;;;;;26.20;99.90;;;;;;5014431;28;19944;-74
2023/06/21 10:24:50;;;;;;;;;;;26.40;99.90;;;;;;5014352;28;19906;-74
2023/06/21 10:27:16;;;;;;;;;;;26.60;99.90;;;;;;5014472;28;20365;-74
2023/06/21 10:29:42;;;;;;;;;;;26.80;99.90;;;;;;5014361;28;19943;-74
2023/06/21 10:32:08;;;;;;;;;;;26.80;98.60;;;;;;5014471;28;20288;-74
2023/06/21 10:34:49;;;;;;;;;;;26.70;98.10;;;;;;5014329;28;20361;-74
2023/06/21 10:37:21;;;;;;;;;;;26.70;98.20;;;;;;5014268;28;19905;-74
2023/06/21 10:39:51;;;;;;;;;;;26.60;97.30;;;;;;5012985;28;20000;-74
2023/06/21 10:42:17;;;;;;;;;;;26.30;97.70;;;;;;5014259;28;19905;-74
2023/06/21 10:44:42;;;;;;;;;;;26.00;99.10;;;;;;5013896;28;19905;-74
2023/06/21 10:47:08;;;;;;;;;;;26.10;98.40;;;;;;5014578;28;20031;-74
2023/06/21 10:49:33;;;;;;;;;;;26.50;99.70;;;;;;5012679;28;19905;-74
2023/06/21 10:51:59;;;;;;;;;;;26.80;99.40;;;;;;5014028;28;19912;-74
2023/06/21 10:54:26;;;;;;;;;;;26.90;98.20;;;;;;5014044;28;19905;-73
2023/06/21 10:56:52;;;;;;;;;;;26.90;98.60;;;;;;5014039;28;20300;-74
2023/06/21 10:59:18;;;;;;;;;;;27.10;97.50;;;;;;5013875;28;19906;-74
2023/06/21 11:01:43;;;;;;;;;;;27.20;98.10;;;;;;5013873;28;19906;-74
2023/06/21 11:04:09;;;;;;;;;;;27.20;97.40;;;;;;5014537;28;19906;-74
2023/06/21 11:06:37;;;;;;;;;;;27.00;97.20;;;;;;5013961;28;19916;-74
2023/06/21 11:09:10;;;;;;;;;;;26.50;98.40;;;;;;5013014;28;19945;-76
2023/06/21 11:11:37;;;;;;;;;;;26.40;98.80;;;;;;5012752;28;19906;-78
2023/06/21 11:14:02;;;;;;;;;;;26.30;97.80;;;;;;5014253;28;19942;-74
2023/06/21 11:16:33;;;;;;;;;;;26.10;98.00;;;;;;5014552;28;19912;-77
2023/06/21 11:19:02;;;;;;;;;;;25.80;96.30;;;;;;5017860;28;19906;-78
2023/06/21 11:21:34;;;;;;;;;;;25.60;97.30;;;;;;5018858;28;19935;-77
2023/06/21 11:24:04;;;;;;;;;;;25.40;99.90;;;;;;5018126;28;20292;-78
2023/06/21 11:26:50;;;;;;;;;;;25.40;99.10;;;;;;5017630;28;20305;-78
2023/06/21 11:29:16;;;;;;;;;;;25.50;99.50;;;;;;5017390;28;19909;-78
2023/06/21 11:31:41;;;;;;;;;;;25.80;99.10;;;;;;5017951;28;19927;-74
2023/06/21 11:34:21;;;;;;;;;;;25.90;98.60;;;;;;5017854;28;19909;-74
2023/06/21 11:36:46;;;;;;;;;;;25.80;98.90;;;;;;5018550;28;19905;-75
2023/06/21 11:39:12;;;;;;;;;;;26.30;99.80;;;;;;5017644;28;20000;-75
2023/06/21 11:41:47;;;;;;;;;;;26.40;99.90;;;;;;5017592;28;19963;-75
2023/06/21 11:44:13;;;;;;;;;;;26.80;99.30;;;;;;5016168;28;19905;-75
2023/06/21 11:46:39;;;;;;;;;;;26.90;96.70;;;;;;5017896;28;19909;-75
2023/06/21 11:49:07;;;;;;;;;;;27.00;96.70;;;;;;5017543;28;19959;-75
2023/06/21 11:51:34;;;;;;;;;;;27.00;96.00;;;;;;5016254;28;19912;-75
2023/06/21 11:53:59;;;;;;;;;;;27.00;95.20;;;;;;5017563;28;19994;-75
2023/06/21 11:56:32;;;;;;;;;;;27.20;96.40;;;;;;5017283;28;19944;-75
2023/06/21 11:58:58;;;;;;;;;;;27.30;94.70;;;;;;5017147;28;19905;-74
2023/06/21 12:01:24;;;;;;;;;;;27.40;94.50;;;;;;5017068;28;19905;-74
2023/06/21 12:03:55;;;;;;;;;;;27.60;94.60;;;;;;5015875;28;19912;-74
2023/06/21 12:06:21;;;;;;;;;;;27.40;95.20;;;;;;5015871;28;19910;-74
2023/06/21 12:08:48;;;;;;;;;;;27.90;95.50;;;;;;5016886;28;19912;-74
2023/06/21 12:11:14;;;;;;;;;;;28.30;94.50;;;;;;5016866;28;20380;-74
2023/06/21 12:13:39;;;;;;;;;;;28.80;91.60;;;;;;5016843;28;19959;-74
2023/06/21 12:16:06;;;;;;;;;;;29.20;91.10;;;;;;5016808;28;19996;-74
2023/06/21 12:18:32;;;;;;;;;;;29.20;89.70;;;;;;5016743;28;19949;-74
2023/06/21 12:20:59;;;;;;;;;;;29.20;88.90;;;;;;5016679;28;19913;-74
2023/06/21 12:23:25;;;;;;;;;;;29.20;87.80;;;;;;5017263;28;19996;-74
2023/06/21 12:25:51;;;;;;;;;;;29.00;88.10;;;;;;5017208;28;20004;-74
2023/06/21 12:28:18;;;;;;;;;;;29.20;87.80;;;;;;5016544;28;19913;-74
2023/06/21 12:30:50;;;;;;;;;;;28.90;84.20;;;;;;5016369;28;19920;-74
2023/06/21 12:33:15;;;;;;;;;;;28.90;83.50;;;;;;5015133;28;19906;-74
2023/06/21 12:35:42;;;;;;;;;;;28.70;82.00;;;;;;5015230;28;19917;-74
2023/06/21 12:38:17;;;;;;;;;;;28.50;84.70;;;;;;5016517;28;19905;-74
2023/06/21 12:40:52;;;;;;;;;;;28.20;86.60;;;;;;5015117;28;20014;-74
2023/06/21 12:43:37;;;;;;;;;;;27.90;85.90;;;;;;5015025;28;19943;-72
2023/06/21 12:46:04;;;;;;;;;;;27.80;90.30;;;;;;5016264;28;20396;-73
2023/06/21 12:48:30;;;;;;;;;;;27.60;93.00;;;;;;5015052;28;19913;-72
2023/06/21 12:50:56;;;;;;;;;;;27.30;93.90;;;;;;5016154;28;19906;-72
2023/06/21 12:53:25;;;;;;;;;;;27.20;95.20;;;;;;5016173;28;19996;-72
2023/06/21 12:55:51;;;;;;;;;;;27.10;97.30;;;;;;5016646;28;19909;-72
2023/06/21 12:58:19;;;;;;;;;;;27.60;97.30;;;;;;5016041;28;19905;-72
2023/06/21 13:00:48;;;;;;;;;;;27.90;95.80;;;;;;5016020;28;19905;-72
2023/06/21 13:03:17;;;;;;;;;;;28.00;94.70;;;;;;5016549;28;19952;-72
2023/06/21 13:05:42;;;;;;;;;;;27.90;95.10;;;;;;5015828;28;20301;-72
2023/06/21 13:08:07;;;;;;;;;;;28.20;96.60;;;;;;5016314;28;19916;-72
2023/06/21 13:10:33;;;;;;;;;;;28.80;94.10;;;;;;5014597;28;20350;-72
2023/06/21 13:12:58;;;;;;;;;;;29.00;95.70;;;;;;5015823;28;20340;-72
2023/06/21 13:15:24;;;;;;;;;;;29.10;94.80;;;;;;5015692;28;19912;-72
2023/06/21 13:17:49;;;;;;;;;;;29.00;95.00;;;;;;5015603;28;19906;-72
2023/06/21 13:20:16;;;;;;;;;;;28.70;95.40;;;;;;5016114;28;19906;-73
2023/06/21 13:22:42;;;;;;;;;;;28.70;96.00;;;;;;5015722;28;19909;-73
2023/06/21 13:25:07;;;;;;;;;;;28.80;95.80;;;;;;5014238;28;20508;-72
2023/06/21 13:27:34;;;;;;;;;;;29.00;96.10;;;;;;5015492;28;19905;-72
2023/06/21 13:30:02;;;;;;;;;;;29.20;93.90;;;;;;5015243;28;19973;-74
2023/06/21 13:32:28;;;;;;;;;;;29.00;93.10;;;;;;5014125;28;19909;-74
2023/06/21 13:34:56;;;;;;;;;;;28.90;94.30;;;;;;5014180;28;19913;-74
2023/06/21 13:37:22;;;;;;;;;;;28.80;93.90;;;;;;5014206;28;19916;-74
2023/06/21 13:39:47;;;;;;;;;;;28.60;95.50;;;;;;5015055;28;19905;-75
2023/06/21 13:42:13;;;;;;;;;;;28.50;97.20;;;;;;5015583;28;19906;-75
2023/06/21 13:44:38;;;;;;;;;;;28.80;97.00;;;;;;5015290;28;19928;-75
2023/06/21 13:47:04;;;;;;;;;;;29.00;95.40;;;;;;5015172;28;20012;-75
2023/06/21 13:49:29;;;;;;;;;;;29.40;92.30;;;;;;5015591;28;19960;-74
2023/06/21 13:51:55;;;;;;;;;;;29.80;87.80;;;;;;5015054;28;19905;-75
2023/06/21 13:54:20;;;;;;;;;;;29.80;84.50;;;;;;5013797;28;20008;-75
2023/06/21 13:56:46;;;;;;;;;;;29.50;85.70;;;;;;5013783;28;20008;-75
2023/06/21 13:59:13;;;;;;;;;;;29.50;86.70;;;;;;5013880;28;19959;-75
2023/06/21 14:01:39;;;;;;;;;;;29.50;83.50;;;;;;5014863;28;20009;-75
2023/06/21 14:04:04;;;;;;;;;;;29.20;85.30;;;;;;5014937;28;19933;-75
2023/06/21 14:06:30;;;;;;;;;;;29.00;84.70;;;;;;5014753;28;20000;-75
2023/06/21 14:08:55;;;;;;;;;;;29.20;84.90;;;;;;5014730;28;20293;-74
2023/06/21 14:11:21;;;;;;;;;;;29.20;85.80;;;;;;5013538;28;19916;-74
2023/06/21 14:13:46;;;;;;;;;;;29.50;82.20;;;;;;5014718;28;19955;-74
2023/06/21 14:16:12;;;;;;;;;;;29.10;83.70;;;;;;5015184;28;19912;-75